메인 페이지
METAR-TAF:

METAR-TAF

공항 :

하르툼 국제공항

하르툼, 수단

위도: 15-36N, 경도: 032-33E, 고도: 382m

현재 날씨관측

예보는 18 시간 35분 전, 15:00시(UTC)에 발표되었습니다.
남서3kt
온도 43°C
습도 6%
기압 1004 hPa
시정 10km 이상
1500m 미만 상공 구름 및 적란운 없음

METAR: HSSS 191500Z 23003KT CAVOK 43/M02 Q1004 NOSIG

시각: 12:35 (09:35 UTC)

예보

예보는 4 시간 35분 전, 05:00시(UTC)에 발표되었습니다.
예보 대상 시간: 20일 06시부터 21일 12시까지 (UTC)
북북서6kt, 순간 최대 풍속 16kt
시정 10km 이상
1500m 미만 상공 구름 및 적란운 없음
확률 30% :
일시적
20일 06시부터 20일 09시까지 (UTC)
시정: 6000m
맑음

TAF: HSSS 200500Z 2006/2112 34006G16KT CAVOK PROB30 TEMPO 2006/2009 6000 SKC

4,000개 이상의 공항 관측 자료 및 예보 (METAR 및 TAF 보고).

지도상에서 검색 가능한 기상관측소가 노란 점과 빨간 점으로 표시되어 있습니다.

기상관측소 명을 보려면 표시 위로 마우스를 이동하세요.

날씨 관측과 예보를 보려면 클릭하세요.

지도 변경 : 확대하려면 엑스 표시가 있는 녹색 버튼, 축소하려면 빼기 표시가 있는 녹색 버튼, 다음 페이지의 지도를 보려면 녹색 화살표를 클릭하세요.


METAR-TAF: